createdAt,value
2022-08-17T00:00:44.112Z,99592.09
2022-08-17T00:01:30.368Z,99582.53
2022-08-17T00:02:36.099Z,99586.43
2022-08-17T00:03:44.791Z,99587.27
2022-08-17T00:04:51.515Z,99586.43
2022-08-17T00:06:03.219Z,99588.11
2022-08-17T00:07:07.040Z,99588.47
2022-08-17T00:08:12.903Z,99589.19
2022-08-17T00:09:19.560Z,99585.11
2022-08-17T00:10:25.119Z,99584.93
2022-08-17T00:11:35.967Z,99593.50
2022-08-17T00:12:44.923Z,99589.13
2022-08-17T00:13:52.190Z,99591.64
2022-08-17T00:14:56.518Z,99592.48
2022-08-17T00:17:15.442Z,99586.34
2022-08-17T00:19:05.690Z,99589.48
2022-08-17T00:19:28.841Z,99589.36
2022-08-17T00:20:34.853Z,99589.94
2022-08-17T00:22:32.677Z,99588.08
2022-08-17T00:22:46.668Z,99590.78
2022-08-17T00:23:54.083Z,99580.37
2022-08-17T00:24:57.571Z,99580.37
2022-08-17T00:26:01.707Z,99586.58
2022-08-17T00:27:06.048Z,99583.76
2022-08-17T00:28:08.557Z,99582.23
2022-08-17T00:29:19.752Z,99579.08
2022-08-17T00:30:21.029Z,99586.86
2022-08-17T00:31:30.092Z,99579.91
2022-08-17T00:33:14.624Z,99576.73
2022-08-17T00:33:56.840Z,99583.81
2022-08-17T00:35:03.323Z,99578.23
2022-08-17T00:36:08.194Z,99575.54
2022-08-17T00:37:11.912Z,99577.58
2022-08-17T00:38:17.194Z,99572.54
2022-08-17T00:39:22.426Z,99568.83
2022-08-17T00:40:44.548Z,99570.02
2022-08-17T00:41:40.117Z,99579.97
2022-08-17T00:42:44.862Z,99574.75
2022-08-17T00:44:00.061Z,99575.95
2022-08-17T00:45:07.942Z,99572.41
2022-08-17T00:47:25.792Z,99584.16
2022-08-17T00:48:32.304Z,99582.17
2022-08-17T00:49:36.435Z,99584.03
2022-08-17T00:50:47.291Z,99576.91
2022-08-17T00:51:56.613Z,99585.84
2022-08-17T00:53:01.078Z,99588.89
2022-08-17T00:54:17.240Z,99585.71
2022-08-17T00:55:26.363Z,99580.98
2022-08-17T00:56:47.958Z,99574.52
2022-08-17T00:57:56.178Z,99576.87
2022-08-17T00:59:01.463Z,99578.23
2022-08-17T01:00:12.244Z,99577.39
2022-08-17T01:02:42.497Z,99572.31
2022-08-17T01:03:46.080Z,99582.69
2022-08-17T01:04:53.391Z,99577.12
2022-08-17T01:06:02.810Z,99578.98
2022-08-17T01:07:08.806Z,99578.59
2022-08-17T01:08:15.960Z,99579.42
2022-08-17T01:09:20.872Z,99575.01
2022-08-17T01:11:42.083Z,99571.22
2022-08-17T01:12:45.675Z,99573.86
2022-08-17T01:13:51.870Z,99574.34
2022-08-17T01:14:58.077Z,99570.45
2022-08-17T01:16:09.432Z,99577.70
2022-08-17T01:17:13.667Z,99575.72
2022-08-17T01:18:17.425Z,99576.63
2022-08-17T01:20:53.154Z,99567.81
2022-08-17T01:22:07.868Z,99567.98
2022-08-17T01:23:20.609Z,99572.36
2022-08-17T01:24:19.030Z,99576.25
2022-08-17T01:25:23.267Z,99572.89
2022-08-17T01:26:29.636Z,99575.59
2022-08-17T01:27:37.523Z,99569.48
2022-08-17T01:28:55.141Z,99576.38
2022-08-17T01:29:50.556Z,99571.17
2022-08-17T01:30:58.316Z,99563.08
2022-08-17T01:32:05.988Z,99572.00
2022-08-17T01:33:10.512Z,99564.27
2022-08-17T01:34:18.674Z,99563.12
2022-08-17T01:36:41.678Z,99562.23
2022-08-17T01:37:45.383Z,99561.45
2022-08-17T01:38:50.235Z,99557.02
2022-08-17T01:39:57.902Z,99558.93
2022-08-17T01:41:06.544Z,99556.90
2022-08-17T01:42:27.734Z,99563.12
2022-08-17T01:43:38.719Z,99554.98
2022-08-17T01:44:42.441Z,99566.97
2022-08-17T01:45:48.258Z,99551.86
2022-08-17T01:46:56.060Z,99555.12
2022-08-17T01:48:00.998Z,99551.59
2022-08-17T01:49:10.360Z,99553.92
2022-08-17T01:50:19.284Z,99552.61
2022-08-17T01:51:23.034Z,99551.23
2022-08-17T01:52:28.189Z,99549.38
2022-08-17T01:53:41.863Z,99548.72
2022-08-17T01:54:47.971Z,99546.02
2022-08-17T01:55:54.919Z,99550.75
2022-08-17T01:57:01.994Z,99552.30
2022-08-17T01:58:10.020Z,99543.37
2022-08-17T01:59:13.928Z,99548.28
2022-08-17T02:00:20.037Z,99548.36
2022-08-17T02:01:26.961Z,99544.16
2022-08-17T02:02:31.578Z,99541.59
2022-08-17T02:03:40.468Z,99542.61
2022-08-17T02:04:48.275Z,99542.79
2022-08-17T02:05:52.949Z,99543.63
2022-08-17T02:06:56.306Z,99538.41
2022-08-17T02:08:02.052Z,99545.31
2022-08-17T02:09:16.841Z,99539.43
2022-08-17T02:10:19.870Z,99538.49
2022-08-17T02:11:22.655Z,99542.73
2022-08-17T02:12:38.830Z,99545.73
2022-08-17T02:13:39.460Z,99548.30
2022-08-17T02:14:43.345Z,99535.17
2022-08-17T02:15:47.535Z,99536.02
2022-08-17T02:16:51.120Z,99544.41
2022-08-17T02:17:54.652Z,99552.98
2022-08-17T02:18:58.661Z,99543.25
2022-08-17T02:20:11.634Z,99543.98
2022-08-17T02:21:17.224Z,99545.18
2022-08-17T02:22:22.552Z,99539.44
2022-08-17T02:23:30.200Z,99546.86
2022-08-17T02:25:01.075Z,99542.48
2022-08-17T02:25:50.192Z,99538.35
2022-08-17T02:26:58.157Z,99536.73
2022-08-17T02:28:03.007Z,99536.91
2022-08-17T02:29:09.040Z,99541.05
2022-08-17T02:31:00.310Z,99544.27
2022-08-17T02:31:21.202Z,99543.73
2022-08-17T02:32:28.667Z,99540.73
2022-08-17T02:33:41.982Z,99538.70
2022-08-17T02:34:41.040Z,99540.91
2022-08-17T02:35:44.044Z,99552.57
2022-08-17T02:36:49.255Z,99547.41
2022-08-17T02:37:55.381Z,99542.83
2022-08-17T02:38:58.124Z,99542.47
2022-08-17T02:40:01.966Z,99534.39
2022-08-17T02:41:08.498Z,99539.89
2022-08-17T02:42:14.420Z,99544.37
2022-08-17T02:43:19.234Z,99545.22
2022-08-17T02:44:39.180Z,99544.86
2022-08-17T02:45:31.816Z,99540.84
2022-08-17T02:46:38.958Z,99550.39
2022-08-17T02:47:46.398Z,99550.50
2022-08-17T02:48:50.443Z,99553.37
2022-08-17T02:49:56.122Z,99550.22
2022-08-17T02:51:01.508Z,99544.94
2022-08-17T02:52:14.884Z,99541.36
2022-08-17T02:53:18.556Z,99537.75
2022-08-17T02:54:40.659Z,99537.22
2022-08-17T02:55:36.549Z,99537.22
2022-08-17T02:56:40.797Z,99532.85
2022-08-17T02:57:48.570Z,99545.17
2022-08-17T02:58:59.108Z,99536.50
2022-08-17T03:00:12.677Z,99537.34
2022-08-17T03:01:16.774Z,99533.98
2022-08-17T03:02:20.754Z,99532.44
2022-08-17T03:03:24.409Z,99537.83
2022-08-17T03:04:28.019Z,99533.28
2022-08-17T03:05:35.565Z,99537.34
2022-08-17T03:06:39.990Z,99536.50
2022-08-17T03:07:43.617Z,99526.08
2022-08-17T03:08:46.498Z,99525.77
2022-08-17T03:09:53.486Z,99528.28
2022-08-17T03:10:57.286Z,99530.98
2022-08-17T03:37:18.582Z,99526.54
2022-08-17T03:38:25.425Z,99524.41
2022-08-17T03:39:29.602Z,99525.83
2022-08-17T03:40:58.855Z,99524.45
2022-08-17T03:41:41.186Z,99521.84
2022-08-17T03:42:45.679Z,99524.84
2022-08-17T03:43:50.576Z,99519.75
2022-08-17T03:44:57.811Z,99528.86
2022-08-17T03:46:34.619Z,99531.17
2022-08-17T03:47:47.390Z,99525.59
2022-08-17T03:49:10.701Z,99535.22
2022-08-17T03:50:21.800Z,99531.17
2022-08-17T03:51:47.708Z,99536.53
2022-08-17T03:53:10.068Z,99535.70
2022-08-17T03:54:31.923Z,99534.98
2022-08-17T03:55:55.800Z,99532.91
2022-08-17T03:57:09.012Z,99531.70
2022-08-17T03:58:13.668Z,99529.19
2022-08-17T03:59:22.288Z,99532.36
2022-08-17T04:00:28.666Z,99536.02
2022-08-17T04:01:32.470Z,99533.50
2022-08-17T04:02:38.290Z,99533.86
2022-08-17T04:03:47.229Z,99532.56
2022-08-17T04:04:51.615Z,99537.30
2022-08-17T04:05:54.215Z,99531.17
2022-08-17T04:06:58.992Z,99530.44
2022-08-17T04:08:02.778Z,99523.63
2022-08-17T04:09:11.071Z,99531.54
2022-08-17T04:10:18.439Z,99526.14
2022-08-17T04:11:23.016Z,99528.11
2022-08-17T04:12:33.009Z,99524.02
2022-08-17T04:13:36.740Z,99525.47
2022-08-17T04:14:53.782Z,99520.48
2022-08-17T04:15:44.837Z,99525.69
2022-08-17T04:16:50.757Z,99526.06
2022-08-17T04:17:56.585Z,99530.98
2022-08-17T04:19:06.469Z,99527.08
2022-08-17T04:20:13.624Z,99521.31
2022-08-17T04:21:19.498Z,99525.41
2022-08-17T04:22:32.508Z,99529.50
2022-08-17T04:23:33.544Z,99522.23
2022-08-17T04:24:41.034Z,99519.17
2022-08-17T04:25:50.756Z,99519.17
2022-08-17T04:26:57.526Z,99525.94
2022-08-17T04:28:01.761Z,99521.37
2022-08-17T04:29:08.319Z,99530.45
2022-08-17T04:30:13.276Z,99516.83
2022-08-17T04:31:17.148Z,99521.02
2022-08-17T04:32:25.012Z,99521.95
2022-08-17T04:33:31.904Z,99524.24
2022-08-17T04:34:35.816Z,99522.34
2022-08-17T04:35:47.153Z,99521.67
2022-08-17T04:36:51.004Z,99516.64
2022-08-17T04:37:56.944Z,99529.13
2022-08-17T04:39:01.775Z,99522.04
2022-08-17T04:40:26.496Z,99524.89
2022-08-17T04:41:51.905Z,99533.20
2022-08-17T04:44:30.411Z,99525.34
2022-08-17T04:45:26.944Z,99525.09
2022-08-17T04:46:36.507Z,99524.19
2022-08-17T04:47:40.737Z,99529.02
2022-08-17T04:48:50.963Z,99528.77
2022-08-17T04:49:54.472Z,99532.51
2022-08-17T04:50:59.712Z,99525.59
2022-08-17T04:52:10.507Z,99528.77
2022-08-17T04:53:17.603Z,99522.62
2022-08-17T04:54:26.050Z,99519.80
2022-08-17T04:55:29.829Z,99523.98
2022-08-17T04:56:39.238Z,99522.02
2022-08-17T04:57:45.208Z,99528.09
2022-08-17T04:58:51.357Z,99525.45
2022-08-17T04:59:57.180Z,99536.59
2022-08-17T05:01:00.780Z,99533.41
2022-08-17T05:03:17.580Z,99547.88
2022-08-17T05:04:33.966Z,99550.33
2022-08-17T05:05:38.056Z,99562.91
2022-08-17T05:06:47.836Z,99568.64
2022-08-17T05:07:57.262Z,99577.58
2022-08-17T05:09:04.144Z,99584.24
2022-08-17T05:10:09.562Z,99583.60
2022-08-17T05:11:17.902Z,99597.73
2022-08-17T05:12:22.420Z,99602.31
2022-08-17T05:13:33.101Z,99598.83
2022-08-17T05:14:42.748Z,99591.98
2022-08-17T05:15:50.055Z,99598.48
2022-08-17T05:16:53.617Z,99595.81
2022-08-17T05:17:58.500Z,99590.83
2022-08-17T05:19:03.016Z,99589.30
2022-08-17T05:20:09.334Z,99591.41
2022-08-17T05:21:14.032Z,99598.00
2022-08-17T05:22:22.247Z,99582.05
2022-08-17T05:23:41.563Z,99590.88
2022-08-17T05:24:42.660Z,99576.66
2022-08-17T05:25:47.410Z,99568.73
2022-08-17T05:26:52.291Z,99567.08
2022-08-17T05:27:59.086Z,99559.65
2022-08-17T05:29:04.020Z,99557.44
2022-08-17T05:30:10.082Z,99556.02
2022-08-17T05:31:14.660Z,99546.00
2022-08-17T05:32:38.121Z,99544.50
2022-08-17T05:33:37.118Z,99552.48
2022-08-17T05:34:42.011Z,99553.18
2022-08-17T05:35:51.653Z,99556.54
2022-08-17T05:37:03.073Z,99554.00
2022-08-17T05:38:08.498Z,99546.88
2022-08-17T05:39:15.697Z,99542.56
2022-08-17T05:40:22.207Z,99545.80
2022-08-17T05:41:25.865Z,99538.88
2022-08-17T05:42:31.840Z,99533.08
2022-08-17T05:43:39.590Z,99529.63
2022-08-17T05:44:44.474Z,99526.23
2022-08-17T05:45:56.444Z,99530.55
2022-08-17T05:47:04.665Z,99522.05
2022-08-17T05:48:09.813Z,99511.95
2022-08-17T05:49:18.594Z,99521.84
2022-08-17T05:50:27.166Z,99523.07
2022-08-17T05:51:48.808Z,99516.72
2022-08-17T05:53:27.925Z,99524.66
2022-08-17T05:54:40.460Z,99529.75
2022-08-17T05:55:53.993Z,99532.62
2022-08-17T05:57:39.502Z,99530.95
2022-08-17T05:59:08.104Z,99528.05
2022-08-17T06:02:14.217Z,99531.77
2022-08-17T06:03:34.437Z,99524.55
2022-08-17T06:04:46.679Z,99526.94
2022-08-17T06:05:56.587Z,99527.42
2022-08-17T06:07:15.379Z,99527.97
2022-08-17T06:08:28.363Z,99521.69
2022-08-17T06:09:44.079Z,99532.72
2022-08-17T06:11:04.295Z,99525.71
2022-08-17T06:12:19.743Z,99525.59
2022-08-17T06:13:58.004Z,99524.95
2022-08-17T06:15:18.233Z,99529.63
2022-08-17T06:16:34.035Z,99536.13
2022-08-17T06:17:34.972Z,99531.78
2022-08-17T06:18:48.331Z,99527.52
2022-08-17T06:20:00.378Z,99539.23
2022-08-17T06:21:07.920Z,99539.23
2022-08-17T06:22:16.239Z,99534.29
2022-08-17T06:25:10.388Z,99536.14
2022-08-17T06:26:16.035Z,99533.23
2022-08-17T06:27:31.365Z,99533.23
2022-08-17T06:28:38.529Z,99533.00
2022-08-17T06:30:04.227Z,99517.05
2022-08-17T06:31:14.405Z,99533.41
2022-08-17T06:32:18.120Z,99535.80
2022-08-17T06:33:23.780Z,99530.98
2022-08-17T06:34:30.492Z,99533.72
2022-08-17T06:37:13.871Z,99538.23
2022-08-17T06:38:37.523Z,99530.35
2022-08-17T06:40:07.782Z,99532.09
2022-08-17T06:41:20.905Z,99531.52
2022-08-17T06:43:02.717Z,99534.06
2022-08-17T06:44:02.447Z,99534.06
2022-08-17T06:45:14.335Z,99543.87
2022-08-17T06:46:36.413Z,99556.69
2022-08-17T06:47:52.048Z,99561.48
2022-08-17T06:49:28.438Z,99580.89
2022-08-17T06:50:44.059Z,99593.44
2022-08-17T06:51:53.230Z,99617.48
2022-08-17T06:54:28.417Z,99639.57
2022-08-17T06:55:49.785Z,99638.08
2022-08-17T06:57:07.716Z,99636.61
2022-08-17T06:58:16.219Z,99642.64
2022-08-17T06:59:23.868Z,99637.70
2022-08-17T07:00:34.443Z,99642.36
2022-08-17T07:01:41.217Z,99648.05
2022-08-17T07:03:07.354Z,99645.03
2022-08-17T07:04:27.121Z,99635.97
2022-08-17T07:05:46.336Z,99651.66
2022-08-17T07:06:53.074Z,99648.23
2022-08-17T07:08:03.184Z,99640.34
2022-08-17T07:09:10.928Z,99643.23
2022-08-17T07:10:16.835Z,99639.36
2022-08-17T07:11:37.367Z,99643.23
2022-08-17T07:12:46.659Z,99637.06
2022-08-17T07:14:24.799Z,99636.05
2022-08-17T07:15:33.153Z,99628.37
2022-08-17T07:16:47.194Z,99633.98
2022-08-17T07:17:51.968Z,99652.41
2022-08-17T07:18:58.014Z,99648.42
2022-08-17T07:20:11.878Z,99651.67
2022-08-17T07:21:26.219Z,99648.30
2022-08-17T07:22:53.511Z,99653.17
2022-08-17T07:23:57.895Z,99653.17
2022-08-17T07:25:06.994Z,99651.27
2022-08-17T07:26:10.611Z,99646.68
2022-08-17T07:27:17.906Z,99640.05
2022-08-17T07:28:22.874Z,99637.52
2022-08-17T07:29:30.687Z,99643.40
2022-08-17T07:30:47.508Z,99639.38
2022-08-17T07:31:46.645Z,99637.93
2022-08-17T07:33:02.065Z,99627.84
2022-08-17T07:34:12.491Z,99633.77
2022-08-17T07:35:40.642Z,99641.03
2022-08-17T07:36:40.677Z,99634.84
2022-08-17T07:37:55.654Z,99630.98
2022-08-17T07:39:01.697Z,99621.80
2022-08-17T07:41:21.322Z,99616.43
2022-08-17T07:42:25.348Z,99608.75
2022-08-17T07:43:44.865Z,99614.73
2022-08-17T07:44:57.570Z,99611.31
2022-08-17T07:46:33.837Z,99611.98
2022-08-17T07:47:56.354Z,99618.23
2022-08-17T07:49:03.305Z,99611.63
2022-08-17T07:51:50.217Z,99602.78
2022-08-17T07:52:59.845Z,99597.48
2022-08-17T07:54:14.552Z,99603.06
2022-08-17T07:55:33.383Z,99597.84
2022-08-17T07:56:58.676Z,99597.19
2022-08-17T07:58:02.487Z,99591.95
2022-08-17T07:59:14.607Z,99597.05
2022-08-17T08:00:19.233Z,99593.62
2022-08-17T08:01:25.021Z,99587.45
2022-08-17T08:02:41.660Z,99588.58
2022-08-17T08:03:51.035Z,99578.67
2022-08-17T08:06:21.473Z,99586.27
2022-08-17T08:07:32.090Z,99585.47
2022-08-17T08:08:37.863Z,99580.33
2022-08-17T08:09:44.715Z,99576.98
2022-08-17T08:10:52.012Z,99575.00
2022-08-17T08:11:58.688Z,99575.44
2022-08-17T08:13:20.259Z,99573.40
2022-08-17T08:14:30.138Z,99571.73
2022-08-17T08:15:54.191Z,99579.25
2022-08-17T08:17:01.664Z,99578.33
2022-08-17T08:18:08.057Z,99581.48
2022-08-17T08:19:16.315Z,99584.81
2022-08-17T08:21:41.212Z,99588.10
2022-08-17T08:22:53.344Z,99597.08
2022-08-17T08:24:16.163Z,99600.13
2022-08-17T08:25:23.476Z,99600.95
2022-08-17T08:26:37.086Z,99595.27
2022-08-17T08:28:05.601Z,99596.56
2022-08-17T08:29:19.063Z,99593.84
2022-08-17T08:30:28.703Z,99596.28
2022-08-17T08:31:42.470Z,99593.90
2022-08-17T08:33:01.683Z,99591.97
2022-08-17T08:34:58.622Z,99585.91
2022-08-17T08:35:35.029Z,99589.27
2022-08-17T08:36:57.064Z,99594.41
2022-08-17T08:38:19.522Z,99595.06
2022-08-17T08:39:48.562Z,99592.02
2022-08-17T08:41:22.620Z,99592.35
2022-08-17T08:42:47.135Z,99593.28
2022-08-17T08:44:05.003Z,99594.14
2022-08-17T08:45:19.425Z,99590.84
2022-08-17T08:48:05.394Z,99587.02
2022-08-17T08:50:06.040Z,99597.31
2022-08-17T08:51:03.902Z,99595.95
2022-08-17T08:52:12.147Z,99590.72
2022-08-17T08:53:29.606Z,99589.43
2022-08-17T08:54:50.051Z,99587.39
2022-08-17T08:57:34.868Z,99594.89
2022-08-17T08:58:47.800Z,99589.21
2022-08-17T09:00:05.366Z,99593.41
2022-08-17T09:01:17.553Z,99588.42
2022-08-17T09:02:29.651Z,99581.49
2022-08-17T09:05:13.966Z,99595.72
2022-08-17T09:06:32.251Z,99600.30
2022-08-17T09:07:38.666Z,99593.36
2022-08-17T09:10:15.387Z,99593.20
2022-08-17T09:12:02.893Z,99593.78
2022-08-17T09:13:10.292Z,99593.37
2022-08-17T09:14:28.606Z,99594.78
2022-08-17T09:15:35.584Z,99587.06
2022-08-17T09:17:12.100Z,99590.41
2022-08-17T09:19:00.417Z,99582.39
2022-08-17T09:19:37.683Z,99576.33
2022-08-17T09:22:03.554Z,99579.88
2022-08-17T09:23:17.098Z,99583.22
2022-08-17T09:24:25.091Z,99582.09
2022-08-17T09:25:32.776Z,99575.74
2022-08-17T09:26:40.448Z,99578.53
2022-08-17T09:28:00.622Z,99580.73
2022-08-17T09:29:07.785Z,99579.63
2022-08-17T09:30:14.408Z,99571.35
2022-08-17T09:31:26.029Z,99577.67
2022-08-17T09:32:45.991Z,99580.70
2022-08-17T09:33:50.073Z,99571.95
2022-08-17T09:34:57.478Z,99573.30
2022-08-17T09:36:04.869Z,99571.33
2022-08-17T09:37:33.668Z,99568.53
2022-08-17T09:38:52.845Z,99574.37
2022-08-17T09:40:10.204Z,99562.83
2022-08-17T09:41:25.549Z,99564.75
2022-08-17T09:42:40.284Z,99560.91
2022-08-17T09:44:01.319Z,99563.94
2022-08-17T09:45:26.783Z,99568.05
2022-08-17T09:46:42.440Z,99569.17
2022-08-17T09:47:59.585Z,99571.91
2022-08-17T09:49:14.998Z,99568.31
2022-08-17T09:51:44.438Z,99556.77
2022-08-17T09:52:54.997Z,99562.83
2022-08-17T09:54:34.969Z,99561.16
2022-08-17T09:55:09.053Z,99565.02
2022-08-17T09:56:33.597Z,99561.95
2022-08-17T09:57:48.130Z,99564.64
2022-08-17T09:59:20.465Z,99555.05
2022-08-17T10:00:31.767Z,99562.47
2022-08-17T10:01:43.306Z,99564.19
2022-08-17T10:02:56.260Z,99562.77
2022-08-17T10:04:06.412Z,99558.14
2022-08-17T10:05:17.363Z,99554.02
2022-08-17T10:06:32.218Z,99551.77
2022-08-17T10:07:47.976Z,99549.05
2022-08-17T10:09:07.675Z,99556.22
2022-08-17T10:10:15.568Z,99548.73
2022-08-17T10:11:33.738Z,99551.50
2022-08-17T10:12:47.027Z,99543.54
2022-08-17T10:15:14.188Z,99540.15
2022-08-17T10:16:27.131Z,99540.41
2022-08-17T10:17:47.125Z,99540.19
2022-08-17T10:19:09.929Z,99548.16
2022-08-17T10:20:18.631Z,99542.94
2022-08-17T10:21:44.407Z,99542.67
2022-08-17T10:23:10.226Z,99543.81
2022-08-17T10:24:39.260Z,99545.73
2022-08-17T10:26:09.706Z,99543.81
2022-08-17T10:27:20.523Z,99538.28
2022-08-17T10:28:30.100Z,99549.04
2022-08-17T10:31:16.729Z,99540.77
2022-08-17T10:32:12.427Z,99548.22
2022-08-17T10:33:24.357Z,99545.73
2022-08-17T10:35:02.635Z,99547.94
2022-08-17T10:36:23.334Z,99546.30
2022-08-17T10:37:33.523Z,99553.70
2022-08-17T10:38:39.807Z,99547.36
2022-08-17T10:40:04.309Z,99546.81
2022-08-17T10:41:23.946Z,99544.91
2022-08-17T10:42:32.929Z,99538.80
2022-08-17T10:45:25.757Z,99541.87
2022-08-17T10:47:03.718Z,99539.95
2022-08-17T10:48:13.843Z,99548.73
2022-08-17T10:49:22.317Z,99541.03
2022-08-17T10:50:54.203Z,99545.89
2022-08-17T10:52:01.054Z,99534.36
2022-08-17T10:53:08.166Z,99539.00
2022-08-17T10:54:33.281Z,99531.65
2022-08-17T10:55:36.945Z,99533.71
2022-08-17T10:56:44.045Z,99530.67
2022-08-17T10:57:53.390Z,99529.52
2022-08-17T10:59:00.410Z,99535.83
2022-08-17T11:00:27.738Z,99539.67
2022-08-17T11:01:44.607Z,99527.97
2022-08-17T11:02:52.319Z,99527.72
2022-08-17T11:03:58.921Z,99524.91
2022-08-17T11:05:18.268Z,99526.53
2022-08-17T11:06:27.178Z,99532.69
2022-08-17T11:07:51.271Z,99525.84
2022-08-17T11:09:14.192Z,99524.48
2022-08-17T11:10:30.930Z,99530.03
2022-08-17T11:11:58.402Z,99531.07
2022-08-17T11:13:09.828Z,99528.86
2022-08-17T11:14:49.097Z,99534.88
2022-08-17T11:16:02.358Z,99529.70
2022-08-17T11:17:20.196Z,99531.23
2022-08-17T11:18:53.167Z,99524.53
2022-08-17T11:45:33.043Z,99491.91
2022-08-17T11:47:21.760Z,99490.14
2022-08-17T11:48:53.566Z,99481.81
2022-08-17T11:50:49.472Z,99490.62
2022-08-17T11:52:24.861Z,99481.13
2022-08-17T11:53:45.669Z,99485.45
2022-08-17T11:54:49.935Z,99483.65
2022-08-17T11:56:01.010Z,99483.65
2022-08-17T11:58:30.729Z,99479.43
2022-08-17T11:59:38.832Z,99479.83
2022-08-17T12:00:54.983Z,99472.98
2022-08-17T12:02:07.056Z,99478.38
2022-08-17T12:03:28.685Z,99475.28
2022-08-17T12:04:36.433Z,99475.47
2022-08-17T12:05:40.802Z,99472.23
2022-08-17T12:06:48.696Z,99473.45
2022-08-17T12:08:14.225Z,99478.38
2022-08-17T12:09:26.528Z,99481.19
2022-08-17T12:12:13.629Z,99481.49
2022-08-17T12:13:15.437Z,99474.38
2022-08-17T12:14:51.312Z,99476.76
2022-08-17T12:15:41.021Z,99477.59
2022-08-17T12:16:45.414Z,99475.48
2022-08-17T12:17:56.748Z,99474.19
2022-08-17T12:19:06.054Z,99470.88
2022-08-17T12:20:19.100Z,99468.73
2022-08-17T12:21:33.387Z,99469.22
2022-08-17T12:22:43.848Z,99459.13
2022-08-17T12:25:24.660Z,99469.78
2022-08-17T12:26:32.657Z,99460.80
2022-08-17T12:27:50.754Z,99465.31
2022-08-17T12:28:50.599Z,99467.02
2022-08-17T12:29:54.938Z,99468.53
2022-08-17T12:31:15.451Z,99465.31
2022-08-17T12:32:22.782Z,99465.16
2022-08-17T12:33:28.766Z,99468.94
2022-08-17T12:34:38.248Z,99467.17
2022-08-17T12:35:42.699Z,99466.27
2022-08-17T12:36:51.845Z,99457.23
2022-08-17T12:37:58.420Z,99454.58
2022-08-17T12:39:14.272Z,99455.78
2022-08-17T12:40:23.899Z,99462.51
2022-08-17T12:41:34.592Z,99457.69
2022-08-17T12:42:42.629Z,99456.41
2022-08-17T12:43:53.279Z,99457.71
2022-08-17T12:44:57.906Z,99457.95
2022-08-17T12:46:14.813Z,99455.59
2022-08-17T12:47:21.561Z,99453.98
2022-08-17T12:48:28.352Z,99460.20
2022-08-17T12:49:35.480Z,99461.08
2022-08-17T12:50:47.590Z,99465.69
2022-08-17T12:51:54.311Z,99471.06
2022-08-17T12:53:02.059Z,99472.21
2022-08-17T12:54:04.002Z,99472.47
2022-08-17T12:55:24.621Z,99481.87
2022-08-17T12:56:31.805Z,99472.78
2022-08-17T12:57:47.417Z,99476.47
2022-08-17T12:58:57.057Z,99479.69
2022-08-17T13:00:13.718Z,99477.14
2022-08-17T13:01:18.633Z,99482.66
2022-08-17T13:02:28.196Z,99477.95
2022-08-17T13:03:40.264Z,99482.02
2022-08-17T13:04:44.807Z,99477.95
2022-08-17T13:06:02.847Z,99476.78
2022-08-17T13:07:06.333Z,99483.52
2022-08-17T13:08:16.891Z,99477.48
2022-08-17T13:09:22.638Z,99477.38
2022-08-17T13:10:33.526Z,99485.67
2022-08-17T13:11:39.472Z,99483.13
2022-08-17T13:12:43.232Z,99485.98
2022-08-17T13:13:55.881Z,99481.22
2022-08-17T13:15:01.926Z,99485.45
2022-08-17T13:16:11.887Z,99486.83
2022-08-17T13:17:21.274Z,99484.14
2022-08-17T13:18:49.735Z,99482.41
2022-08-17T13:19:54.205Z,99482.30
2022-08-17T13:21:00.805Z,99486.44
2022-08-17T13:22:10.392Z,99483.38
2022-08-17T13:23:18.905Z,99487.53
2022-08-17T13:24:53.600Z,99482.30
2022-08-17T13:26:10.099Z,99483.57
2022-08-17T13:27:19.022Z,99482.59
2022-08-17T13:28:35.817Z,99475.85
2022-08-17T13:29:39.181Z,99479.22
2022-08-17T13:30:42.799Z,99488.24
2022-08-17T13:31:52.795Z,99475.85
2022-08-17T13:32:57.582Z,99481.80
2022-08-17T13:34:27.691Z,99480.44
2022-08-17T13:35:44.310Z,99482.28
2022-08-17T13:36:57.311Z,99479.82
2022-08-17T13:38:12.212Z,99486.00
2022-08-17T13:39:19.585Z,99482.59
2022-08-17T13:40:29.137Z,99482.05
2022-08-17T13:41:37.169Z,99478.27
2022-08-17T13:42:53.164Z,99475.07
2022-08-17T13:43:54.491Z,99479.41
2022-08-17T13:45:02.188Z,99478.00
2022-08-17T13:46:18.314Z,99471.29
2022-08-17T13:47:29.146Z,99472.58
2022-08-17T13:48:33.517Z,99472.97
2022-08-17T13:49:49.090Z,99476.16
2022-08-17T13:50:49.672Z,99469.06
2022-08-17T13:51:53.953Z,99482.17
2022-08-17T13:53:00.909Z,99487.25
2022-08-17T13:54:11.133Z,99479.41
2022-08-17T13:55:22.126Z,99479.11
2022-08-17T13:56:38.421Z,99485.75
2022-08-17T13:57:39.870Z,99483.67
2022-08-17T13:58:59.135Z,99478.16
2022-08-17T14:00:13.053Z,99477.90
2022-08-17T14:01:52.775Z,99476.98
2022-08-17T14:02:55.277Z,99479.66
2022-08-17T14:04:02.334Z,99476.80
2022-08-17T14:05:08.005Z,99476.63
2022-08-17T14:06:51.910Z,99475.06
2022-08-17T14:07:24.594Z,99473.98
2022-08-17T14:08:29.072Z,99476.72
2022-08-17T14:09:37.354Z,99473.66
2022-08-17T14:10:43.966Z,99476.47
2022-08-17T14:11:48.820Z,99473.58
2022-08-17T14:12:54.307Z,99471.41
2022-08-17T14:13:59.211Z,99468.25
2022-08-17T14:15:03.863Z,99473.31
2022-08-17T14:16:09.420Z,99471.74
2022-08-17T14:17:14.879Z,99471.74
2022-08-17T14:18:42.024Z,99473.46
2022-08-17T14:19:30.872Z,99474.59
2022-08-17T14:20:36.248Z,99484.55
2022-08-17T14:21:44.560Z,99472.81
2022-08-17T14:22:51.273Z,99477.12
2022-08-17T14:23:55.184Z,99471.05
2022-08-17T14:25:02.215Z,99474.56
2022-08-17T14:26:07.689Z,99468.14
2022-08-17T14:27:12.446Z,99474.42
2022-08-17T14:28:15.932Z,99478.88
2022-08-17T14:29:20.639Z,99467.41
2022-08-17T14:30:29.825Z,99472.64
2022-08-17T14:31:37.393Z,99469.65
2022-08-17T14:32:40.361Z,99477.17
2022-08-17T14:33:45.295Z,99468.73
2022-08-17T14:34:50.091Z,99473.64
2022-08-17T14:35:55.316Z,99470.73
2022-08-17T14:37:00.531Z,99468.94
2022-08-17T14:38:04.281Z,99471.02
2022-08-17T14:39:09.544Z,99467.37
2022-08-17T14:40:17.124Z,99467.49
2022-08-17T14:41:24.960Z,99468.14
2022-08-17T14:42:39.118Z,99469.65
2022-08-17T14:43:43.786Z,99473.29
2022-08-17T14:44:46.499Z,99477.81
2022-08-17T14:45:51.401Z,99477.70
2022-08-17T14:47:00.321Z,99479.69
2022-08-17T14:48:08.898Z,99472.55
2022-08-17T14:49:16.114Z,99480.45
2022-08-17T14:50:22.083Z,99484.88
2022-08-17T14:51:32.397Z,99481.87
2022-08-17T14:52:35.577Z,99483.56
2022-08-17T14:53:39.211Z,99486.39
2022-08-17T14:54:47.228Z,99482.90
2022-08-17T14:55:53.472Z,99480.00
2022-08-17T14:56:59.195Z,99468.07
2022-08-17T14:58:03.934Z,99482.19
2022-08-17T14:59:11.007Z,99478.34
2022-08-17T15:00:17.926Z,99476.34
2022-08-17T15:01:27.034Z,99475.55
2022-08-17T15:02:30.866Z,99476.63
2022-08-17T15:03:41.641Z,99475.59
2022-08-17T15:04:49.405Z,99479.58
2022-08-17T15:05:53.406Z,99477.17
2022-08-17T15:06:58.577Z,99476.26
2022-08-17T15:08:05.193Z,99476.95
2022-08-17T15:09:08.178Z,99476.76
2022-08-17T15:10:19.301Z,99476.63
2022-08-17T15:11:25.701Z,99467.66
2022-08-17T15:12:34.328Z,99474.67
2022-08-17T15:13:52.954Z,99478.00
2022-08-17T15:14:49.275Z,99481.23
2022-08-17T15:15:54.716Z,99481.27
2022-08-17T15:16:58.891Z,99471.48
2022-08-17T15:18:02.922Z,99479.58
2022-08-17T15:19:10.986Z,99474.97
2022-08-17T15:20:21.097Z,99475.51